Time;durP1;ratioP1;P1;durP2;ratioP2;P2;SDS_P1;SDS_P2;PMS_P1;PMS_P2;Temp;Humidity;BMP_temperature;BMP_pressure;BME280_temperature;BME280_humidity;BME280_pressure;Samples;Min_cycle;Max_cycle;Signal;HPM_P1;HPM_P2
2022/11/18 00:01:09;;;;;;;4.63;1.60;;;8.90;99.90;;;;;;5081135;28;20218;-93
2022/11/18 00:03:35;;;;;;;3.33;1.43;;;8.90;99.90;;;;;;5083149;28;20276;-93
2022/11/18 00:06:02;;;;;;;5.93;1.50;;;9.10;99.90;;;;;;5082588;28;20177;-92
2022/11/18 00:08:27;;;;;;;4.73;1.50;;;8.90;99.90;;;;;;5081371;28;20206;-92
2022/11/18 00:10:55;;;;;;;5.57;1.70;;;8.90;99.90;;;;;;5081308;28;20190;-93
2022/11/18 00:16:11;;;;;;;5.47;1.63;;;8.90;99.90;;;;;;5082078;28;20189;-93
2022/11/18 00:18:37;;;;;;;4.27;1.20;;;9.00;99.90;;;;;;5081463;28;20166;-93
2022/11/18 00:21:10;;;;;;;2.80;1.47;;;9.00;99.90;;;;;;5081160;28;20619;-92
2022/11/18 00:23:36;;;;;;;3.77;1.50;;;9.00;99.90;;;;;;5080982;28;20191;-92
2022/11/18 00:26:02;;;;;;;2.77;1.33;;;9.00;99.90;;;;;;5085514;28;20185;-92
2022/11/18 00:28:29;;;;;;;5.03;1.80;;;9.00;99.90;;;;;;5088085;28;20581;-93
2022/11/18 00:31:04;;;;;;;2.33;1.20;;;9.10;99.90;;;;;;5081160;28;20242;-93
2022/11/18 00:33:30;;;;;;;4.13;1.60;;;9.10;99.90;;;;;;5079816;28;20621;-93
2022/11/18 00:35:56;;;;;;;4.60;1.47;;;9.10;99.90;;;;;;5081781;28;20206;-92
2022/11/18 00:38:22;;;;;;;4.53;1.57;;;9.20;99.90;;;;;;5081084;28;20174;-93
2022/11/18 00:40:47;;;;;;;4.60;1.60;;;9.10;99.90;;;;;;5080420;28;20239;-93
2022/11/18 00:43:13;;;;;;;7.37;1.60;;;9.10;99.90;;;;;;5080052;28;20182;-92
2022/11/18 00:45:39;;;;;;;3.53;1.67;;;9.00;99.90;;;;;;5080407;28;20266;-92
2022/11/18 00:48:04;;;;;;;2.67;1.20;;;9.10;99.90;;;;;;5080023;28;20211;-93
2022/11/18 00:50:32;;;;;;;4.13;1.33;;;9.10;99.90;;;;;;5081127;28;20202;-93
2022/11/18 00:52:57;;;;;;;3.40;1.40;;;8.90;99.90;;;;;;5082375;28;20311;-93
2022/11/18 00:55:23;;;;;;;4.10;1.40;;;8.80;99.90;;;;;;5083929;28;20215;-92
2022/11/18 00:57:49;;;;;;;5.97;1.40;;;8.90;99.90;;;;;;5082243;28;20195;-93
2022/11/18 01:00:15;;;;;;;2.30;1.30;;;8.70;99.90;;;;;;5081674;28;20203;-93
2022/11/18 01:02:40;;;;;;;2.80;1.57;;;8.80;99.90;;;;;;5080896;28;20224;-93
2022/11/18 01:05:06;;;;;;;5.97;1.33;;;8.80;99.90;;;;;;5081077;28;20191;-93
2022/11/18 01:07:32;;;;;;;3.50;1.40;;;8.70;99.90;;;;;;5081948;28;20175;-93
2022/11/18 01:09:57;;;;;;;7.57;1.57;;;8.50;99.90;;;;;;5079699;28;20178;-93
2022/11/18 01:15:08;;;;;;;4.77;1.60;;;8.70;99.90;;;;;;5081452;28;20651;-93
2022/11/18 01:17:34;;;;;;;3.43;1.30;;;8.70;99.90;;;;;;5080001;28;20179;-93
2022/11/18 01:19:59;;;;;;;3.90;1.30;;;8.70;99.90;;;;;;5079581;28;20206;-93
2022/11/18 01:22:25;;;;;;;5.10;1.30;;;8.70;99.90;;;;;;5079817;28;20659;-93
2022/11/18 01:24:51;;;;;;;2.63;1.20;;;8.60;99.90;;;;;;5079491;28;20187;-93
2022/11/18 01:27:16;;;;;;;2.73;1.40;;;8.80;99.90;;;;;;5080339;28;20232;-93
2022/11/18 01:29:42;;;;;;;4.07;1.20;;;8.90;99.90;;;;;;5080040;28;20656;-93
2022/11/18 01:32:07;;;;;;;5.60;1.30;;;9.10;99.90;;;;;;5080444;28;20206;-93
2022/11/18 01:34:33;;;;;;;3.80;1.43;;;8.70;99.90;;;;;;5079359;28;20309;-93
2022/11/18 01:36:58;;;;;;;3.57;1.70;;;8.70;99.90;;;;;;5079552;28;20189;-92
2022/11/18 01:39:24;;;;;;;3.57;1.20;;;8.70;99.90;;;;;;5079314;28;20307;-93
2022/11/18 01:41:50;;;;;;;7.27;1.33;;;8.80;99.90;;;;;;5080564;28;20194;-92
2022/11/18 01:45:10;;;;;;;2.87;1.40;;;8.70;99.90;;;;;;5080698;28;20225;-93
2022/11/18 01:47:52;;;;;;;4.20;1.80;;;8.80;99.90;;;;;;5070385;28;20286;-92
2022/11/18 01:50:20;;;;;;;4.20;1.40;;;8.70;99.90;;;;;;5092805;28;20210;-92
2022/11/18 01:52:47;;;;;;;5.27;1.20;;;8.70;99.90;;;;;;5079364;28;20183;-93
2022/11/18 01:55:24;;;;;;;2.87;1.23;;;8.80;99.90;;;;;;5079613;28;20202;-92
2022/11/18 01:57:57;;;;;;;2.37;0.90;;;8.70;99.90;;;;;;5079858;28;20167;-93
2022/11/18 02:00:22;;;;;;;2.87;1.23;;;8.70;99.90;;;;;;5079357;28;20661;-92
2022/11/18 02:02:48;;;;;;;3.93;1.23;;;8.70;99.90;;;;;;5079298;28;20175;-93
2022/11/18 02:05:16;;;;;;;2.50;1.13;;;8.80;99.90;;;;;;5080503;28;20201;-93
2022/11/18 02:07:42;;;;;;;2.73;1.20;;;8.70;99.90;;;;;;5078948;28;20175;-92
2022/11/18 02:10:15;;;;;;;4.37;1.30;;;8.70;99.90;;;;;;5080271;28;20185;-94
2022/11/18 02:12:41;;;;;;;5.40;1.40;;;8.70;99.90;;;;;;5079391;28;20175;-93
2022/11/18 02:15:07;;;;;;;6.00;1.70;;;8.70;99.90;;;;;;5079340;28;20206;-93
2022/11/18 02:17:44;;;;;;;3.67;1.53;;;8.70;99.90;;;;;;5079350;28;20182;-93
2022/11/18 02:20:25;;;;;;;2.13;1.20;;;8.70;99.90;;;;;;5078765;28;20210;-93
2022/11/18 02:23:09;;;;;;;4.20;1.37;;;8.70;99.90;;;;;;5079051;28;20180;-93
2022/11/18 02:26:15;;;;;;;3.83;1.50;;;8.70;99.90;;;;;;5078938;28;20167;-93
2022/11/18 02:28:55;;;;;;;3.43;1.57;;;8.70;99.90;;;;;;5078515;28;20261;-93
2022/11/18 02:31:31;;;;;;;6.03;1.37;;;8.70;99.90;;;;;;5079009;28;20178;-93
2022/11/18 02:34:15;;;;;;;3.43;1.40;;;8.60;99.90;;;;;;5078253;28;20319;-93
2022/11/18 02:36:58;;;;;;;4.27;1.27;;;8.70;99.90;;;;;;5078220;28;20195;-93
2022/11/18 02:39:31;;;;;;;3.50;1.30;;;8.70;99.90;;;;;;5085575;28;20178;-92
2022/11/18 02:42:00;;;;;;;3.77;1.50;;;8.70;99.90;;;;;;5079638;28;20173;-93
2022/11/18 02:44:29;;;;;;;2.13;1.00;;;8.80;99.90;;;;;;5079384;28;20198;-93
2022/11/18 02:47:00;;;;;;;5.67;1.20;;;8.70;99.90;;;;;;5079677;28;20179;-93
2022/11/18 02:49:45;;;;;;;6.00;1.40;;;8.70;99.90;;;;;;5079003;28;20631;-93
2022/11/18 02:52:12;;;;;;;5.07;1.10;;;8.70;99.90;;;;;;5079053;28;20179;-93
2022/11/18 02:54:40;;;;;;;5.17;1.50;;;8.70;99.90;;;;;;5078417;28;20230;-92
2022/11/18 02:57:07;;;;;;;4.13;1.10;;;8.70;99.90;;;;;;5079350;28;20178;-93
2022/11/18 02:59:32;;;;;;;5.47;1.20;;;8.70;99.90;;;;;;5078836;28;20178;-94
2022/11/18 03:01:58;;;;;;;3.40;1.13;;;8.70;99.90;;;;;;5078281;28;20724;-93
2022/11/18 03:04:26;;;;;;;8.20;1.43;;;8.70;99.90;;;;;;5078185;28;20190;-93
2022/11/18 03:07:12;;;;;;;2.17;1.07;;;8.70;99.90;;;;;;5079754;28;20206;-92
2022/11/18 03:09:42;;;;;;;4.43;1.27;;;8.70;99.90;;;;;;5090556;28;20247;-93
2022/11/18 03:12:24;;;;;;;9.33;1.70;;;8.70;99.90;;;;;;5078506;28;20595;-92
2022/11/18 03:14:58;;;;;;;4.23;1.70;;;8.70;99.90;;;;;;5078075;28;20725;-93
2022/11/18 03:18:01;;;;;;;2.47;1.20;;;8.70;99.90;;;;;;5078775;28;20518;-93
2022/11/18 03:20:29;;;;;;;4.40;1.10;;;8.60;99.90;;;;;;5079636;28;20209;-93
2022/11/18 03:23:06;;;;;;;3.17;1.50;;;8.70;99.90;;;;;;5078217;28;20179;-93
2022/11/18 03:25:49;;;;;;;5.37;1.73;;;8.60;99.90;;;;;;5077870;28;20198;-93
2022/11/18 03:28:34;;;;;;;2.33;1.43;;;8.70;99.90;;;;;;5077834;28;20175;-93
2022/11/18 03:31:13;;;;;;;7.17;1.63;;;8.70;99.90;;;;;;5079382;28;20205;-93
2022/11/18 03:33:47;;;;;;;4.03;1.70;;;8.70;99.90;;;;;;5082988;28;20224;-93
2022/11/18 03:36:15;;;;;;;4.63;1.63;;;8.70;99.90;;;;;;5081944;28;20215;-93
2022/11/18 03:38:52;;;;;;;3.80;1.50;;;9.50;99.90;;;;;;5081634;28;20652;-93
2022/11/18 03:41:20;;;;;;;3.10;1.53;;;8.70;99.90;;;;;;5084134;28;20205;-93
2022/11/18 03:43:53;;;;;;;3.93;1.77;;;8.80;99.90;;;;;;5082503;28;20203;-93
2022/11/18 03:46:40;;;;;;;4.50;1.33;;;10.00;99.90;;;;;;5082568;28;20229;-92
2022/11/18 03:49:12;;;;;;;4.77;2.03;;;8.80;99.90;;;;;;5082730;28;20182;-93
2022/11/18 03:51:43;;;;;;;2.60;1.40;;;8.80;99.90;;;;;;5082400;28;20646;-93
2022/11/18 03:54:17;;;;;;;11.43;1.97;;;8.40;99.90;;;;;;5083045;28;20195;-93
2022/11/18 03:56:48;;;;;;;3.83;1.47;;;8.80;99.90;;;;;;5081682;28;20174;-93
2022/11/18 03:59:26;;;;;;;4.90;1.90;;;8.80;99.90;;;;;;5081035;28;20629;-93
2022/11/18 04:01:57;;;;;;;2.10;1.50;;;8.90;99.90;;;;;;5081012;28;20187;-93
2022/11/18 04:04:25;;;;;;;5.40;2.03;;;9.00;99.90;;;;;;5080693;28;20611;-93
2022/11/18 04:07:01;;;;;;;6.80;2.40;;;8.80;99.90;;;;;;5081318;28;20171;-93
2022/11/18 04:09:34;;;;;;;4.07;1.63;;;8.80;99.90;;;;;;5080357;28;20182;-93
2022/11/18 04:12:06;;;;;;;7.33;1.93;;;8.90;99.90;;;;;;5080327;28;20178;-93
2022/11/18 04:14:35;;;;;;;9.07;1.73;;;8.90;99.90;;;;;;5080111;28;20281;-92
2022/11/18 04:17:08;;;;;;;8.17;1.50;;;8.90;99.90;;;;;;5079952;28;20604;-93
2022/11/18 04:19:34;;;;;;;4.50;1.70;;;8.80;99.90;;;;;;5082174;28;20205;-93
2022/11/18 04:22:00;;;;;;;3.53;1.53;;;8.90;99.90;;;;;;5081001;28;20178;-93
2022/11/18 04:24:25;;;;;;;4.47;1.37;;;8.90;99.90;;;;;;5081312;28;20190;-93
2022/11/18 04:26:51;;;;;;;4.33;1.80;;;8.90;99.90;;;;;;5081499;28;20179;-93
2022/11/18 04:29:17;;;;;;;3.13;1.57;;;8.90;99.90;;;;;;5080956;28;20248;-93
2022/11/18 04:31:42;;;;;;;8.47;1.60;;;8.90;99.90;;;;;;5081071;28;20525;-93
2022/11/18 04:34:08;;;;;;;7.93;2.00;;;8.90;99.90;;;;;;5083134;28;20213;-93
2022/11/18 04:36:36;;;;;;;4.23;1.40;;;8.70;99.90;;;;;;5082033;28;20186;-93
2022/11/18 04:39:02;;;;;;;4.90;1.40;;;9.00;99.90;;;;;;5080519;28;20186;-93
2022/11/18 04:44:12;;;;;;;3.63;1.70;;;8.90;99.90;;;;;;5081536;28;20683;-93
2022/11/18 04:46:39;;;;;;;4.83;1.50;;;8.90;99.90;;;;;;5079976;28;20266;-93
2022/11/18 04:49:06;;;;;;;3.17;1.60;;;9.20;99.90;;;;;;5080391;28;20179;-93
2022/11/18 04:51:31;;;;;;;3.43;1.50;;;8.90;99.90;;;;;;5080823;28;20179;-93
2022/11/18 04:53:57;;;;;;;3.63;2.63;;;9.30;99.90;;;;;;5080976;28;20610;-92
2022/11/18 04:56:22;;;;;;;4.07;1.30;;;8.80;99.90;;;;;;5079969;28;20175;-92
2022/11/18 04:58:48;;;;;;;5.53;1.40;;;9.00;99.90;;;;;;5081317;28;20228;-93
2022/11/18 05:01:14;;;;;;;2.90;1.30;;;8.90;99.90;;;;;;5079639;28;20664;-93
2022/11/18 05:03:39;;;;;;;4.03;1.90;;;9.10;99.90;;;;;;5080105;28;20191;-93
2022/11/18 05:06:05;;;;;;;3.23;1.37;;;9.00;99.90;;;;;;5080957;28;20238;-93
2022/11/18 05:08:31;;;;;;;5.43;1.63;;;9.00;99.90;;;;;;5080454;28;20193;-93
2022/11/18 05:12:47;;;;;;;7.27;1.67;;;9.00;99.90;;;;;;5080090;28;20197;-93
2022/11/18 05:13:42;;;;;;;6.20;1.53;;;9.00;99.90;;;;;;5084037;28;20202;-94
2022/11/18 05:16:07;;;;;;;2.20;1.30;;;9.30;99.90;;;;;;5090450;28;20179;-93
2022/11/18 05:18:33;;;;;;;4.13;1.60;;;8.90;99.90;;;;;;5088066;28;20179;-93
2022/11/18 05:20:59;;;;;;;6.30;1.57;;;8.90;99.90;;;;;;5088669;28;20210;-93
2022/11/18 05:23:24;;;;;;;3.60;1.53;;;9.00;99.90;;;;;;5086367;28;20183;-94
2022/11/18 05:25:50;;;;;;;5.93;1.70;;;9.00;99.90;;;;;;5088065;28;20179;-94
2022/11/18 05:28:15;;;;;;;4.80;1.80;;;9.00;99.90;;;;;;5083733;28;20178;-93
2022/11/18 05:30:41;;;;;;;8.40;1.80;;;9.00;99.90;;;;;;5080449;28;20190;-94
2022/11/18 05:33:07;;;;;;;4.67;1.80;;;8.90;99.90;;;;;;5066502;28;20283;-93
2022/11/18 05:35:35;;;;;;;5.67;1.67;;;9.00;99.90;;;;;;5066731;28;20366;-93
2022/11/18 05:38:01;;;;;;;4.90;1.50;;;9.00;99.90;;;;;;5061714;28;20188;-93
2022/11/18 05:40:27;;;;;;;10.00;1.77;;;9.00;99.90;;;;;;5059939;28;20230;-93
2022/11/18 05:43:10;;;;;;;7.60;1.73;;;8.90;99.90;;;;;;5059991;28;20721;-93
2022/11/18 05:45:37;;;;;;;3.07;1.30;;;8.90;99.90;;;;;;5051647;28;20210;-93
2022/11/18 05:48:05;;;;;;;7.63;1.70;;;8.90;99.90;;;;;;5054089;28;20309;-93
2022/11/18 05:50:33;;;;;;;3.03;1.47;;;8.90;99.90;;;;;;5061299;28;20186;-92
2022/11/18 05:52:59;;;;;;;5.87;1.80;;;9.20;99.90;;;;;;5053526;28;20179;-93
2022/11/18 05:55:30;;;;;;;8.87;1.93;;;9.00;99.90;;;;;;5068458;28;20284;-93
2022/11/18 05:57:58;;;;;;;6.23;2.10;;;8.70;99.90;;;;;;5048237;28;20647;-93
2022/11/18 06:00:24;;;;;;;7.13;1.97;;;8.80;99.90;;;;;;5075783;28;20215;-93
2022/11/18 06:02:51;;;;;;;7.27;1.70;;;8.80;99.90;;;;;;5084580;28;20156;-93
2022/11/18 06:05:28;;;;;;;4.70;2.20;;;8.70;99.90;;;;;;5079754;28;20192;-94
2022/11/18 06:07:56;;;;;;;4.63;2.07;;;8.70;99.90;;;;;;5070316;28;20171;-93
2022/11/18 06:10:29;;;;;;;3.67;2.80;;;8.70;99.90;;;;;;5096256;28;20171;-93
2022/11/18 06:12:59;;;;;;;3.23;2.30;;;8.80;99.90;;;;;;5098748;28;20143;-93
2022/11/18 06:15:28;;;;;;;3.87;2.57;;;8.50;99.90;;;;;;5094921;28;20187;-93
2022/11/18 06:18:05;;;;;;;6.73;2.10;;;8.50;99.90;;;;;;5091784;28;20262;-93
2022/11/18 06:20:39;;;;;;;4.70;2.00;;;8.60;99.90;;;;;;5096744;28;20234;-93
2022/11/18 06:23:05;;;;;;;4.33;2.43;;;9.30;99.90;;;;;;5069770;28;20187;-93
2022/11/18 06:25:31;;;;;;;3.57;2.00;;;8.50;99.90;;;;;;5059743;28;20196;-94
2022/11/18 06:28:00;;;;;;;5.67;2.13;;;8.50;99.90;;;;;;5059529;28;20179;-94
2022/11/18 06:30:26;;;;;;;3.60;2.10;;;8.50;99.90;;;;;;5054956;28;20188;-93
2022/11/18 06:32:51;;;;;;;3.17;1.80;;;8.50;99.90;;;;;;5064867;28;20186;-93
2022/11/18 06:35:20;;;;;;;3.83;1.80;;;8.50;99.90;;;;;;5077262;28;20688;-94
2022/11/18 06:37:51;;;;;;;3.53;1.80;;;8.70;99.90;;;;;;5079800;28;20163;-94
2022/11/18 06:40:17;;;;;;;8.07;2.53;;;8.60;99.90;;;;;;5080139;28;20210;-94
2022/11/18 06:45:35;;;;;;;5.20;2.03;;;8.60;99.90;;;;;;5084891;22;20257;-79
2022/11/18 06:48:01;;;;;;;3.53;1.83;;;8.50;99.90;;;;;;5079710;28;20265;-82
2022/11/18 06:50:27;;;;;;;4.80;1.83;;;8.60;99.90;;;;;;5079631;28;20174;-81
2022/11/18 06:52:53;;;;;;;3.67;1.73;;;8.50;99.90;;;;;;5078057;28;20578;-81
2022/11/18 06:55:19;;;;;;;7.37;2.10;;;8.60;99.90;;;;;;5079238;28;20175;-82
2022/11/18 06:57:44;;;;;;;5.83;2.13;;;8.50;99.90;;;;;;5076698;28;20191;-82
2022/11/18 07:00:10;;;;;;;3.60;2.40;;;8.60;99.90;;;;;;5077547;28;20245;-82
2022/11/18 07:02:36;;;;;;;4.43;1.90;;;8.60;99.90;;;;;;5077190;28;20174;-82
2022/11/18 07:05:03;;;;;;;3.20;2.13;;;8.60;99.90;;;;;;5076677;28;20172;-81
2022/11/18 07:07:28;;;;;;;6.37;2.40;;;8.60;99.90;;;;;;5080061;28;20191;-82
2022/11/18 07:09:54;;;;;;;4.17;1.90;;;8.60;99.90;;;;;;5086386;28;20190;-82
2022/11/18 07:12:19;;;;;;;7.37;2.13;;;8.60;99.90;;;;;;5085051;28;20224;-82
2022/11/18 07:14:45;;;;;;;2.50;1.93;;;8.60;99.90;;;;;;5085002;28;20548;-82
2022/11/18 07:17:11;;;;;;;4.30;2.13;;;8.60;99.90;;;;;;5085469;28;20653;-81
2022/11/18 07:19:38;;;;;;;4.87;1.70;;;8.60;99.90;;;;;;5084813;28;20171;-81
2022/11/18 07:22:04;;;;;;;6.43;2.43;;;8.70;99.90;;;;;;5084089;28;20174;-81
2022/11/18 07:24:30;;;;;;;6.03;1.97;;;8.70;99.90;;;;;;5084737;28;20242;-80
2022/11/18 07:26:55;;;;;;;5.47;2.10;;;8.70;99.90;;;;;;5083496;28;20201;-82
2022/11/18 07:29:21;;;;;;;6.10;1.73;;;8.70;99.90;;;;;;5083375;28;20648;-82
2022/11/18 07:31:46;;;;;;;4.53;2.20;;;8.70;99.90;;;;;;5083098;28;20187;-82
2022/11/18 07:34:12;;;;;;;6.07;1.97;;;8.70;99.90;;;;;;5085593;28;20202;-81
2022/11/18 07:36:37;;;;;;;3.27;1.63;;;8.70;99.90;;;;;;5083296;28;20190;-81
2022/11/18 07:39:05;;;;;;;2.60;1.73;;;8.70;99.90;;;;;;5084415;28;20236;-78
2022/11/18 07:41:32;;;;;;;4.33;1.77;;;8.70;99.90;;;;;;5086924;28;20187;-80
2022/11/18 07:44:01;;;;;;;3.57;1.57;;;8.70;99.90;;;;;;5087192;28;20535;-80
2022/11/18 07:46:28;;;;;;;4.83;1.60;;;8.70;99.90;;;;;;5082702;28;20210;-81
2022/11/18 07:48:56;;;;;;;4.43;1.40;;;8.80;99.90;;;;;;5081535;28;20175;-80
2022/11/18 07:51:24;;;;;;;4.33;1.53;;;8.80;99.90;;;;;;5082353;28;20216;-81
2022/11/18 07:53:50;;;;;;;5.93;1.43;;;8.80;99.90;;;;;;5080918;28;20178;-80
2022/11/18 07:56:16;;;;;;;3.67;2.17;;;8.80;99.90;;;;;;5080648;28;20198;-78
2022/11/18 07:58:42;;;;;;;2.97;1.70;;;8.80;99.90;;;;;;5082372;28;20163;-78
2022/11/18 08:01:13;;;;;;;5.43;2.37;;;8.80;99.90;;;;;;5080589;28;20201;-78
2022/11/18 08:03:40;;;;;;;4.90;1.80;;;8.80;99.90;;;;;;5080533;28;20246;-78
2022/11/18 08:06:07;;;;;;;4.10;1.70;;;8.90;99.90;;;;;;5082293;28;20211;-78
2022/11/18 08:08:34;;;;;;;4.57;2.10;;;8.90;99.90;;;;;;5081588;28;20174;-80
2022/11/18 08:11:01;;;;;;;3.30;1.80;;;8.90;99.90;;;;;;5080312;28;20668;-77
2022/11/18 08:13:28;;;;;;;4.63;1.90;;;9.00;99.90;;;;;;5080283;28;20188;-78
2022/11/18 08:15:54;;;;;;;3.70;1.87;;;9.00;99.90;;;;;;5080149;28;20269;-78
2022/11/18 08:18:21;;;;;;;4.50;2.20;;;9.00;99.90;;;;;;5079019;28;20190;-78
2022/11/18 08:20:47;;;;;;;4.73;1.93;;;9.00;99.90;;;;;;5078029;28;20279;-78
2022/11/18 08:23:13;;;;;;;6.77;1.93;;;9.00;99.90;;;;;;5078306;28;20191;-78
2022/11/18 08:25:39;;;;;;;8.27;2.33;;;9.10;99.90;;;;;;5078304;28;20182;-78
2022/11/18 08:28:05;;;;;;;6.87;2.70;;;9.10;99.90;;;;;;5076679;28;20617;-78
2022/11/18 08:30:32;;;;;;;7.87;2.37;;;9.10;99.90;;;;;;5076708;28;20182;-78
2022/11/18 08:32:58;;;;;;;6.60;2.40;;;9.10;99.90;;;;;;5077443;28;20183;-78
2022/11/18 08:35:25;;;;;;;5.53;2.57;;;9.10;99.90;;;;;;5078039;28;20174;-78
2022/11/18 08:37:51;;;;;;;5.83;2.87;;;9.10;99.90;;;;;;5076616;28;20205;-78
2022/11/18 08:40:16;;;;;;;4.53;2.83;;;9.10;99.90;;;;;;5077674;28;20195;-79
2022/11/18 08:42:42;;;;;;;5.23;2.40;;;9.10;99.90;;;;;;5078353;28;20178;-78
2022/11/18 08:45:08;;;;;;;6.90;2.23;;;9.10;99.90;;;;;;5077708;28;20190;-78
2022/11/18 08:47:35;;;;;;;8.93;2.40;;;9.10;99.90;;;;;;5076222;28;20209;-79
2022/11/18 08:50:01;;;;;;;5.57;2.60;;;9.10;99.90;;;;;;5077560;28;20201;-78
2022/11/18 08:52:27;;;;;;;6.53;2.47;;;9.00;99.90;;;;;;5077597;28;20167;-78
2022/11/18 08:54:52;;;;;;;9.93;2.93;;;9.10;99.90;;;;;;5077688;28;20637;-79
2022/11/18 08:57:18;;;;;;;7.30;3.00;;;9.10;99.90;;;;;;5077339;28;20203;-79
2022/11/18 08:59:43;;;;;;;4.60;2.37;;;9.10;99.90;;;;;;5077836;28;20203;-78
2022/11/18 09:02:13;;;;;;;4.80;2.30;;;9.10;99.90;;;;;;5076852;28;20167;-79
2022/11/18 09:04:39;;;;;;;2.80;2.10;;;9.10;99.90;;;;;;5077076;28;20171;-78
2022/11/18 09:07:04;;;;;;;4.03;2.10;;;9.10;99.90;;;;;;5076973;28;20270;-78
2022/11/18 09:09:30;;;;;;;4.67;2.43;;;9.20;99.90;;;;;;5077595;28;20637;-78
2022/11/18 09:11:55;;;;;;;4.93;2.47;;;9.20;99.90;;;;;;5077101;28;20182;-78
2022/11/18 09:14:21;;;;;;;3.70;2.50;;;9.20;99.90;;;;;;5077891;28;20186;-78
2022/11/18 09:16:47;;;;;;;5.20;2.43;;;9.20;99.90;;;;;;5077729;28;20682;-79
2022/11/18 09:19:14;;;;;;;5.33;3.33;;;9.30;99.90;;;;;;5075889;28;20175;-78
2022/11/18 09:21:40;;;;;;;4.67;2.23;;;9.30;99.90;;;;;;5076285;28;20681;-77
2022/11/18 09:24:06;;;;;;;3.53;1.90;;;9.30;99.90;;;;;;5074731;28;20198;-78
2022/11/18 09:26:31;;;;;;;5.87;2.83;;;9.30;99.90;;;;;;5077506;28;20201;-79
2022/11/18 09:28:57;;;;;;;3.53;2.50;;;9.30;99.90;;;;;;5078112;28;20166;-79
2022/11/18 09:31:22;;;;;;;5.00;2.77;;;9.40;99.90;;;;;;5076681;28;20234;-79
2022/11/18 09:33:48;;;;;;;13.10;3.10;;;9.40;99.90;;;;;;5078313;28;20206;-79
2022/11/18 09:36:19;;;;;;;4.00;3.00;;;9.40;99.90;;;;;;5078288;28;20240;-78
2022/11/18 09:38:45;;;;;;;9.63;3.37;;;9.40;99.90;;;;;;5079447;28;20559;-79
2022/11/18 09:41:32;;;;;;;9.50;3.10;;;9.50;99.90;;;;;;5090849;28;20256;-79
2022/11/18 09:44:21;;;;;;;8.90;3.30;;;9.50;99.90;;;;;;5093507;28;20182;-77
2022/11/18 09:46:47;;;;;;;7.00;2.90;;;9.50;99.90;;;;;;5080409;28;20217;-78
2022/11/18 09:49:26;;;;;;;11.40;3.43;;;9.60;99.90;;;;;;5076778;28;20170;-79
2022/11/18 09:51:53;;;;;;;10.30;3.60;;;9.70;99.90;;;;;;5076860;28;20162;-78
2022/11/18 09:54:32;;;;;;;8.70;2.77;;;9.70;99.90;;;;;;5075078;28;20175;-79
2022/11/18 09:56:58;;;;;;;7.30;2.90;;;9.80;99.90;;;;;;5076483;28;20191;-78
2022/11/18 09:59:26;;;;;;;8.70;4.00;;;9.80;99.90;;;;;;5076775;28;20179;-79
2022/11/18 10:01:57;;;;;;;8.77;2.60;;;9.80;99.90;;;;;;5075136;28;20194;-79
2022/11/18 10:04:22;;;;;;;5.60;2.60;;;9.90;99.90;;;;;;5076019;28;20155;-78
2022/11/18 10:06:49;;;;;;;5.87;2.63;;;9.90;99.90;;;;;;5075780;28;20553;-79
2022/11/18 10:09:36;;;;;;;10.77;3.27;;;9.90;99.90;;;;;;5076622;28;20568;-79
2022/11/18 10:12:35;;;;;;;8.17;2.93;;;10.00;99.90;;;;;;5074971;28;20174;-77
2022/11/18 10:15:18;;;;;;;3.73;2.20;;;10.00;99.90;;;;;;5076594;28;20189;-79
2022/11/18 10:18:03;;;;;;;10.47;2.77;;;10.10;99.90;;;;;;5075452;28;20684;-79
2022/11/18 10:20:54;;;;;;;6.03;2.23;;;10.10;99.90;;;;;;5075628;28;20179;-79
2022/11/18 10:23:27;;;;;;;6.60;2.27;;;10.10;99.90;;;;;;5075532;28;20167;-78
2022/11/18 10:25:53;;;;;;;7.33;2.00;;;10.20;99.90;;;;;;5074020;28;20266;-78
2022/11/18 10:28:30;;;;;;;12.63;2.90;;;10.20;99.90;;;;;;5074284;28;20538;-79
2022/11/18 10:31:10;;;;;;;4.73;2.33;;;10.20;99.90;;;;;;5074143;28;20170;-78
2022/11/18 10:33:37;;;;;;;7.50;2.37;;;10.30;99.90;;;;;;5075066;28;20592;-75
2022/11/18 10:36:16;;;;;;;4.93;1.80;;;10.40;99.90;;;;;;5073747;28;20175;-78
2022/11/18 10:38:42;;;;;;;5.53;2.43;;;10.50;99.90;;;;;;5074381;28;20162;-77
2022/11/18 10:41:13;;;;;;;3.30;2.40;;;10.50;99.90;;;;;;5072660;28;20197;-78
2022/11/18 10:43:53;;;;;;;6.07;1.93;;;10.50;99.90;;;;;;5074054;28;20162;-76
2022/11/18 10:46:26;;;;;;;6.43;2.47;;;10.60;99.90;;;;;;5074334;28;20202;-78
2022/11/18 10:49:10;;;;;;;3.50;2.03;;;10.60;99.90;;;;;;5072726;28;20208;-77
2022/11/18 10:51:36;;;;;;;4.33;2.13;;;10.70;99.90;;;;;;5075410;28;20177;-79
2022/11/18 10:54:20;;;;;;;5.90;1.80;;;10.70;99.90;;;;;;5075224;28;20600;-76
2022/11/18 10:56:56;;;;;;;3.57;1.70;;;10.70;99.90;;;;;;5074205;28;20183;-77
2022/11/18 10:59:24;;;;;;;10.20;2.43;;;10.70;99.90;;;;;;5074481;28;20159;-78
2022/11/18 11:02:16;;;;;;;6.57;2.17;;;10.70;99.90;;;;;;5072954;28;20202;-78
2022/11/18 11:04:44;;;;;;;4.93;1.63;;;10.70;99.90;;;;;;5073853;28;20161;-78
2022/11/18 11:07:31;;;;;;;6.70;2.00;;;10.70;99.90;;;;;;5072984;28;20565;-78
2022/11/18 11:10:05;;;;;;;7.27;1.73;;;10.70;99.90;;;;;;5073067;28;20218;-78
2022/11/18 11:12:45;;;;;;;4.30;1.77;;;10.70;99.90;;;;;;5074065;28;20176;-78
2022/11/18 11:15:27;;;;;;;5.77;2.20;;;10.80;99.90;;;;;;5073083;28;20167;-78
2022/11/18 11:20:43;;;;;;;6.90;1.73;;;10.90;99.90;;;;;;5074674;28;20187;-78
2022/11/18 11:23:13;;;;;;;5.37;2.00;;;11.00;99.90;;;;;;5074282;28;20171;-78
2022/11/18 11:25:54;;;;;;;6.03;2.00;;;11.00;99.90;;;;;;5074525;28;20151;-75
2022/11/18 11:28:58;;;;;;;7.33;1.70;;;11.00;99.90;;;;;;5074414;28;20596;-77
2022/11/18 11:31:34;;;;;;;5.93;1.97;;;11.00;99.90;;;;;;5073117;28;20266;-75
2022/11/18 11:34:18;;;;;;;11.23;2.20;;;11.00;99.90;;;;;;5074316;28;20193;-77
2022/11/18 11:36:57;;;;;;;7.43;1.60;;;11.10;99.90;;;;;;5075429;28;20565;-78
2022/11/18 11:39:36;;;;;;;5.97;1.90;;;11.10;99.90;;;;;;5074375;28;20159;-78
2022/11/18 11:42:37;;;;;;;8.40;2.03;;;11.10;99.90;;;;;;5074000;28;20187;-78
2022/11/18 11:45:14;;;;;;;5.60;1.70;;;11.10;99.90;;;;;;5074546;28;20186;-77
2022/11/18 11:48:01;;;;;;;4.83;1.70;;;11.10;99.90;;;;;;5073967;28;20193;-78
2022/11/18 11:50:53;;;;;;;7.43;1.80;;;11.10;99.90;;;;;;5074391;28;20513;-78
2022/11/18 11:53:46;;;;;;;3.67;1.80;;;11.10;99.90;;;;;;5073911;28;20167;-78
2022/11/18 11:56:22;;;;;;;4.83;1.50;;;11.10;99.90;;;;;;5077737;28;20156;-80
2022/11/18 11:59:09;;;;;;;5.37;2.00;;;11.20;99.90;;;;;;5079552;28;20159;-79
2022/11/18 12:02:22;;;;;;;5.27;1.80;;;11.30;99.90;;;;;;5080172;28;20539;-80
2022/11/18 12:04:55;;;;;;;5.80;1.30;;;11.40;99.90;;;;;;4997491;28;20181;-80
2022/11/18 12:07:48;;;;;;;5.23;1.50;;;11.50;99.90;;;;;;4998380;28;20205;-79
2022/11/18 12:10:45;;;;;;;4.70;1.20;;;11.50;99.90;;;;;;5054866;28;20201;-79
2022/11/18 12:13:41;;;;;;;7.00;1.73;;;11.50;99.90;;;;;;5068384;28;20594;-79
2022/11/18 12:16:19;;;;;;;9.77;2.13;;;11.50;99.90;;;;;;5078824;28;20156;-78
2022/11/18 12:18:57;;;;;;;7.97;1.50;;;11.50;99.90;;;;;;5077201;28;20170;-79
2022/11/18 12:21:42;;;;;;;2.57;1.63;;;11.50;99.90;;;;;;5078803;28;20214;-78
2022/11/18 12:24:36;;;;;;;7.17;1.87;;;11.60;99.90;;;;;;5077782;28;20159;-78
2022/11/18 12:27:11;;;;;;;5.23;0.90;;;11.70;99.90;;;;;;5078494;28;20194;-78
2022/11/18 12:32:58;;;;;;;4.80;1.50;;;12.00;99.90;;;;;;5077914;28;20158;-78
2022/11/18 12:35:28;;;;;;;8.73;1.50;;;11.90;99.90;;;;;;5077794;28;20546;-78
2022/11/18 12:37:54;;;;;;;8.17;1.40;;;12.00;99.90;;;;;;5077988;28;20229;-80
2022/11/18 12:40:43;;;;;;;4.20;1.63;;;12.00;99.90;;;;;;5078550;28;20657;-80
2022/11/18 12:46:08;;;;;;;8.30;1.53;;;11.90;99.90;;;;;;5079291;28;20578;-79
2022/11/18 12:48:39;;;;;;;9.03;1.40;;;11.90;99.90;;;;;;5079389;28;20175;-80
2022/11/18 12:51:13;;;;;;;5.47;1.30;;;11.90;99.90;;;;;;5079014;28;20185;-80
2022/11/18 12:53:44;;;;;;;4.27;1.23;;;11.90;99.90;;;;;;5079610;28;20531;-79
2022/11/18 12:56:27;;;;;;;4.17;1.20;;;11.90;99.90;;;;;;5079305;28;20668;-80
2022/11/18 12:58:54;;;;;;;4.53;1.23;;;11.90;99.90;;;;;;5095672;28;20610;-79
2022/11/18 13:01:23;;;;;;;3.93;1.23;;;12.00;99.90;;;;;;5094799;28;20199;-79
2022/11/18 13:03:48;;;;;;;5.13;1.43;;;12.00;99.90;;;;;;5082696;28;20178;-80
2022/11/18 13:06:34;;;;;;;3.00;1.20;;;12.10;99.90;;;;;;5076090;28;20194;-80
2022/11/18 13:09:03;;;;;;;7.53;1.47;;;12.20;99.90;;;;;;5078116;28;20163;-81
2022/11/18 13:11:43;;;;;;;5.93;1.27;;;12.30;99.90;;;;;;5078144;28;20175;-80
2022/11/18 13:20:37;;;;;;;8.13;1.43;;;12.20;99.90;;;;;;5078996;28;20737;-81
2022/11/18 13:26:01;;;;;;;5.53;1.40;;;12.10;99.90;;;;;;5077786;28;20649;-81
2022/11/18 13:28:44;;;;;;;8.03;1.50;;;12.10;99.90;;;;;;5077510;28;20180;-80
2022/11/18 13:31:16;;;;;;;6.17;1.40;;;12.10;99.90;;;;;;5075805;28;20178;-81
2022/11/18 13:33:42;;;;;;;5.63;1.40;;;12.10;99.90;;;;;;5078027;28;20174;-80
2022/11/18 13:36:20;;;;;;;6.30;1.80;;;12.00;99.90;;;;;;5077426;28;20171;-80
2022/11/18 13:38:56;;;;;;;8.57;2.47;;;11.90;99.90;;;;;;5077777;28;20182;-81
2022/11/18 13:41:23;;;;;;;4.10;1.60;;;11.90;99.90;;;;;;5076836;28;20241;-81
2022/11/18 13:43:50;;;;;;;3.47;1.20;;;11.90;99.90;;;;;;5078244;28;20167;-81
2022/11/18 13:46:19;;;;;;;2.67;1.27;;;11.90;99.90;;;;;;5079912;28;20198;-80